sensor_id;sensor_type;location;lat;lon;timestamp;P1;durP1;ratioP1;P2;durP2;ratioP2
35909;SDS011;22004;49.120;-0.200;2023-10-31T00:00:49;14.52;;;7.43;;
35909;SDS011;22004;49.120;-0.200;2023-10-31T00:03:15;14.63;;;7.88;;
35909;SDS011;22004;49.120;-0.200;2023-10-31T00:05:40;14.07;;;6.68;;
35909;SDS011;22004;49.120;-0.200;2023-10-31T00:08:06;16.02;;;6.25;;
35909;SDS011;22004;49.120;-0.200;2023-10-31T00:10:31;12.60;;;5.63;;
35909;SDS011;22004;49.120;-0.200;2023-10-31T00:12:57;16.05;;;6.30;;
35909;SDS011;22004;49.120;-0.200;2023-10-31T00:15:22;13.07;;;5.95;;
35909;SDS011;22004;49.120;-0.200;2023-10-31T00:17:49;13.55;;;6.32;;
35909;SDS011;22004;49.120;-0.200;2023-10-31T00:20:15;14.48;;;5.72;;
35909;SDS011;22004;49.120;-0.200;2023-10-31T00:22:40;16.98;;;4.13;;
35909;SDS011;22004;49.120;-0.200;2023-10-31T00:25:05;14.70;;;5.00;;
35909;SDS011;22004;49.120;-0.200;2023-10-31T00:27:31;17.33;;;5.25;;
35909;SDS011;22004;49.120;-0.200;2023-10-31T00:29:56;10.30;;;5.05;;
35909;SDS011;22004;49.120;-0.200;2023-10-31T00:32:22;13.02;;;5.65;;
35909;SDS011;22004;49.120;-0.200;2023-10-31T00:34:47;10.07;;;4.15;;
35909;SDS011;22004;49.120;-0.200;2023-10-31T00:37:12;20.30;;;5.63;;
35909;SDS011;22004;49.120;-0.200;2023-10-31T00:39:38;12.48;;;5.18;;
35909;SDS011;22004;49.120;-0.200;2023-10-31T00:42:03;13.43;;;4.82;;
35909;SDS011;22004;49.120;-0.200;2023-10-31T00:44:28;13.85;;;4.70;;
35909;SDS011;22004;49.120;-0.200;2023-10-31T00:46:54;10.43;;;4.80;;
35909;SDS011;22004;49.120;-0.200;2023-10-31T00:49:19;10.02;;;4.82;;
35909;SDS011;22004;49.120;-0.200;2023-10-31T00:51:44;8.63;;;4.35;;
35909;SDS011;22004;49.120;-0.200;2023-10-31T00:54:10;10.45;;;4.63;;
35909;SDS011;22004;49.120;-0.200;2023-10-31T00:56:35;9.65;;;4.72;;
35909;SDS011;22004;49.120;-0.200;2023-10-31T00:59:00;13.73;;;5.05;;
35909;SDS011;22004;49.120;-0.200;2023-10-31T01:01:26;17.77;;;4.45;;
35909;SDS011;22004;49.120;-0.200;2023-10-31T01:03:51;12.13;;;4.50;;
35909;SDS011;22004;49.120;-0.200;2023-10-31T01:06:17;12.38;;;4.00;;
35909;SDS011;22004;49.120;-0.200;2023-10-31T01:08:42;12.90;;;4.70;;
35909;SDS011;22004;49.120;-0.200;2023-10-31T01:11:08;10.82;;;4.25;;
35909;SDS011;22004;49.120;-0.200;2023-10-31T01:13:33;8.25;;;4.13;;
35909;SDS011;22004;49.120;-0.200;2023-10-31T01:15:58;8.10;;;3.80;;
35909;SDS011;22004;49.120;-0.200;2023-10-31T01:18:23;13.02;;;4.10;;
35909;SDS011;22004;49.120;-0.200;2023-10-31T01:20:49;10.57;;;3.90;;
35909;SDS011;22004;49.120;-0.200;2023-10-31T01:23:14;10.57;;;4.00;;
35909;SDS011;22004;49.120;-0.200;2023-10-31T01:25:39;9.00;;;4.18;;
35909;SDS011;22004;49.120;-0.200;2023-10-31T01:28:05;10.15;;;3.90;;
35909;SDS011;22004;49.120;-0.200;2023-10-31T01:30:31;9.23;;;3.42;;
35909;SDS011;22004;49.120;-0.200;2023-10-31T01:32:57;8.65;;;3.88;;
35909;SDS011;22004;49.120;-0.200;2023-10-31T01:35:22;8.32;;;3.72;;
35909;SDS011;22004;49.120;-0.200;2023-10-31T01:37:47;11.40;;;3.97;;
35909;SDS011;22004;49.120;-0.200;2023-10-31T01:40:13;12.68;;;3.95;;
35909;SDS011;22004;49.120;-0.200;2023-10-31T01:42:39;11.80;;;4.25;;
35909;SDS011;22004;49.120;-0.200;2023-10-31T01:45:04;14.35;;;4.03;;
35909;SDS011;22004;49.120;-0.200;2023-10-31T01:47:30;7.20;;;4.07;;
35909;SDS011;22004;49.120;-0.200;2023-10-31T01:49:56;7.68;;;3.45;;
35909;SDS011;22004;49.120;-0.200;2023-10-31T01:52:21;7.68;;;3.90;;
35909;SDS011;22004;49.120;-0.200;2023-10-31T01:54:46;7.68;;;3.70;;
35909;SDS011;22004;49.120;-0.200;2023-10-31T01:57:12;10.38;;;4.00;;
35909;SDS011;22004;49.120;-0.200;2023-10-31T01:59:39;7.43;;;3.97;;
35909;SDS011;22004;49.120;-0.200;2023-10-31T02:02:04;10.65;;;3.78;;
35909;SDS011;22004;49.120;-0.200;2023-10-31T02:04:30;9.90;;;3.35;;
35909;SDS011;22004;49.120;-0.200;2023-10-31T02:06:55;8.23;;;3.47;;
35909;SDS011;22004;49.120;-0.200;2023-10-31T02:09:21;7.72;;;3.17;;
35909;SDS011;22004;49.120;-0.200;2023-10-31T02:11:49;9.55;;;3.60;;
35909;SDS011;22004;49.120;-0.200;2023-10-31T02:14:15;8.13;;;3.63;;
35909;SDS011;22004;49.120;-0.200;2023-10-31T02:16:40;10.05;;;3.60;;
35909;SDS011;22004;49.120;-0.200;2023-10-31T02:19:06;7.60;;;3.30;;
35909;SDS011;22004;49.120;-0.200;2023-10-31T02:21:32;7.15;;;3.28;;
35909;SDS011;22004;49.120;-0.200;2023-10-31T02:24:01;7.70;;;3.38;;
35909;SDS011;22004;49.120;-0.200;2023-10-31T02:26:28;12.23;;;3.35;;
35909;SDS011;22004;49.120;-0.200;2023-10-31T02:28:55;9.43;;;3.03;;
35909;SDS011;22004;49.120;-0.200;2023-10-31T02:31:20;11.15;;;3.38;;
35909;SDS011;22004;49.120;-0.200;2023-10-31T02:33:46;8.35;;;3.20;;
35909;SDS011;22004;49.120;-0.200;2023-10-31T02:36:11;10.60;;;2.97;;
35909;SDS011;22004;49.120;-0.200;2023-10-31T02:38:36;6.13;;;2.85;;
35909;SDS011;22004;49.120;-0.200;2023-10-31T02:41:01;9.05;;;2.92;;
35909;SDS011;22004;49.120;-0.200;2023-10-31T02:43:27;10.75;;;3.25;;
35909;SDS011;22004;49.120;-0.200;2023-10-31T02:45:52;10.57;;;3.10;;
35909;SDS011;22004;49.120;-0.200;2023-10-31T02:48:18;6.60;;;3.13;;
35909;SDS011;22004;49.120;-0.200;2023-10-31T02:50:43;6.60;;;3.33;;
35909;SDS011;22004;49.120;-0.200;2023-10-31T02:53:09;8.27;;;2.90;;
35909;SDS011;22004;49.120;-0.200;2023-10-31T02:55:35;7.97;;;3.42;;
35909;SDS011;22004;49.120;-0.200;2023-10-31T02:58:00;7.63;;;2.45;;
35909;SDS011;22004;49.120;-0.200;2023-10-31T03:00:25;6.93;;;2.80;;
35909;SDS011;22004;49.120;-0.200;2023-10-31T03:02:51;9.15;;;3.08;;
35909;SDS011;22004;49.120;-0.200;2023-10-31T03:05:17;9.05;;;3.08;;
35909;SDS011;22004;49.120;-0.200;2023-10-31T03:07:42;7.13;;;2.83;;
35909;SDS011;22004;49.120;-0.200;2023-10-31T03:10:08;7.63;;;2.92;;
35909;SDS011;22004;49.120;-0.200;2023-10-31T03:12:34;5.70;;;2.42;;
35909;SDS011;22004;49.120;-0.200;2023-10-31T03:14:59;8.68;;;3.05;;
35909;SDS011;22004;49.120;-0.200;2023-10-31T03:17:24;8.00;;;2.92;;
35909;SDS011;22004;49.120;-0.200;2023-10-31T03:19:50;6.93;;;2.70;;
35909;SDS011;22004;49.120;-0.200;2023-10-31T03:22:16;6.85;;;2.45;;
35909;SDS011;22004;49.120;-0.200;2023-10-31T03:24:41;5.57;;;2.60;;
35909;SDS011;22004;49.120;-0.200;2023-10-31T03:27:06;9.52;;;2.70;;
35909;SDS011;22004;49.120;-0.200;2023-10-31T03:29:31;6.65;;;2.60;;
35909;SDS011;22004;49.120;-0.200;2023-10-31T03:31:57;8.15;;;2.90;;
35909;SDS011;22004;49.120;-0.200;2023-10-31T03:34:22;7.03;;;2.42;;
35909;SDS011;22004;49.120;-0.200;2023-10-31T03:36:47;7.85;;;2.40;;
35909;SDS011;22004;49.120;-0.200;2023-10-31T03:39:13;5.93;;;2.45;;
35909;SDS011;22004;49.120;-0.200;2023-10-31T03:41:38;5.97;;;2.25;;
35909;SDS011;22004;49.120;-0.200;2023-10-31T03:44:04;6.85;;;2.35;;
35909;SDS011;22004;49.120;-0.200;2023-10-31T03:46:29;5.30;;;2.50;;
35909;SDS011;22004;49.120;-0.200;2023-10-31T03:48:55;5.88;;;2.50;;
35909;SDS011;22004;49.120;-0.200;2023-10-31T03:51:20;8.13;;;2.72;;
35909;SDS011;22004;49.120;-0.200;2023-10-31T03:53:45;6.88;;;2.70;;
35909;SDS011;22004;49.120;-0.200;2023-10-31T03:56:11;8.80;;;2.60;;
35909;SDS011;22004;49.120;-0.200;2023-10-31T03:58:36;5.78;;;2.30;;
35909;SDS011;22004;49.120;-0.200;2023-10-31T04:01:01;5.07;;;2.35;;
35909;SDS011;22004;49.120;-0.200;2023-10-31T04:03:27;4.35;;;2.30;;
35909;SDS011;22004;49.120;-0.200;2023-10-31T04:05:52;5.53;;;2.75;;
35909;SDS011;22004;49.120;-0.200;2023-10-31T04:08:18;9.98;;;2.30;;
35909;SDS011;22004;49.120;-0.200;2023-10-31T04:10:43;6.50;;;2.30;;
35909;SDS011;22004;49.120;-0.200;2023-10-31T04:13:09;6.40;;;2.25;;
35909;SDS011;22004;49.120;-0.200;2023-10-31T04:15:34;8.45;;;2.95;;
35909;SDS011;22004;49.120;-0.200;2023-10-31T04:18:00;8.40;;;2.58;;
35909;SDS011;22004;49.120;-0.200;2023-10-31T04:20:25;15.38;;;2.78;;
35909;SDS011;22004;49.120;-0.200;2023-10-31T04:22:50;8.02;;;2.53;;
35909;SDS011;22004;49.120;-0.200;2023-10-31T04:25:16;7.85;;;2.38;;
35909;SDS011;22004;49.120;-0.200;2023-10-31T04:27:41;5.93;;;1.98;;
35909;SDS011;22004;49.120;-0.200;2023-10-31T04:30:07;11.85;;;2.22;;
35909;SDS011;22004;49.120;-0.200;2023-10-31T04:32:32;4.80;;;2.25;;
35909;SDS011;22004;49.120;-0.200;2023-10-31T04:34:57;7.45;;;2.70;;
35909;SDS011;22004;49.120;-0.200;2023-10-31T04:37:23;6.95;;;2.28;;
35909;SDS011;22004;49.120;-0.200;2023-10-31T04:39:48;6.85;;;2.50;;
35909;SDS011;22004;49.120;-0.200;2023-10-31T04:42:13;11.70;;;2.47;;
35909;SDS011;22004;49.120;-0.200;2023-10-31T04:44:39;6.80;;;2.28;;
35909;SDS011;22004;49.120;-0.200;2023-10-31T04:47:04;7.95;;;1.95;;
35909;SDS011;22004;49.120;-0.200;2023-10-31T04:49:29;8.90;;;2.85;;
35909;SDS011;22004;49.120;-0.200;2023-10-31T04:51:55;6.57;;;2.25;;
35909;SDS011;22004;49.120;-0.200;2023-10-31T04:54:20;6.97;;;1.98;;
35909;SDS011;22004;49.120;-0.200;2023-10-31T04:56:46;5.07;;;2.33;;
35909;SDS011;22004;49.120;-0.200;2023-10-31T04:59:12;10.07;;;2.42;;
35909;SDS011;22004;49.120;-0.200;2023-10-31T05:01:37;3.30;;;1.70;;
35909;SDS011;22004;49.120;-0.200;2023-10-31T05:04:03;5.22;;;2.38;;
35909;SDS011;22004;49.120;-0.200;2023-10-31T05:06:28;10.63;;;2.20;;
35909;SDS011;22004;49.120;-0.200;2023-10-31T05:08:53;6.78;;;2.13;;
35909;SDS011;22004;49.120;-0.200;2023-10-31T05:11:19;6.72;;;2.17;;
35909;SDS011;22004;49.120;-0.200;2023-10-31T05:13:44;7.75;;;2.30;;
35909;SDS011;22004;49.120;-0.200;2023-10-31T05:16:10;5.13;;;2.10;;
35909;SDS011;22004;49.120;-0.200;2023-10-31T05:18:36;7.55;;;2.33;;
35909;SDS011;22004;49.120;-0.200;2023-10-31T05:21:03;8.23;;;2.25;;
35909;SDS011;22004;49.120;-0.200;2023-10-31T05:23:29;7.03;;;2.10;;
35909;SDS011;22004;49.120;-0.200;2023-10-31T05:25:54;5.82;;;2.17;;
35909;SDS011;22004;49.120;-0.200;2023-10-31T05:28:20;10.07;;;2.28;;
35909;SDS011;22004;49.120;-0.200;2023-10-31T05:30:46;7.15;;;1.95;;
35909;SDS011;22004;49.120;-0.200;2023-10-31T05:33:11;6.38;;;2.42;;
35909;SDS011;22004;49.120;-0.200;2023-10-31T05:35:36;7.97;;;2.47;;
35909;SDS011;22004;49.120;-0.200;2023-10-31T05:38:02;7.75;;;1.88;;
35909;SDS011;22004;49.120;-0.200;2023-10-31T05:40:27;8.25;;;2.33;;
35909;SDS011;22004;49.120;-0.200;2023-10-31T05:42:54;5.13;;;1.80;;
35909;SDS011;22004;49.120;-0.200;2023-10-31T05:45:19;6.35;;;1.88;;
35909;SDS011;22004;49.120;-0.200;2023-10-31T05:47:45;7.55;;;2.10;;
35909;SDS011;22004;49.120;-0.200;2023-10-31T05:50:10;6.65;;;1.80;;
35909;SDS011;22004;49.120;-0.200;2023-10-31T05:52:36;5.97;;;1.83;;
35909;SDS011;22004;49.120;-0.200;2023-10-31T05:55:01;6.93;;;1.90;;
35909;SDS011;22004;49.120;-0.200;2023-10-31T05:57:27;6.47;;;1.98;;
35909;SDS011;22004;49.120;-0.200;2023-10-31T05:59:52;14.43;;;2.08;;
35909;SDS011;22004;49.120;-0.200;2023-10-31T06:02:17;17.23;;;2.28;;
35909;SDS011;22004;49.120;-0.200;2023-10-31T06:04:43;7.05;;;1.80;;
35909;SDS011;22004;49.120;-0.200;2023-10-31T06:07:10;8.93;;;2.60;;
35909;SDS011;22004;49.120;-0.200;2023-10-31T06:09:35;7.03;;;2.10;;
35909;SDS011;22004;49.120;-0.200;2023-10-31T06:12:01;8.45;;;2.05;;
35909;SDS011;22004;49.120;-0.200;2023-10-31T06:14:26;8.50;;;2.42;;
35909;SDS011;22004;49.120;-0.200;2023-10-31T06:16:51;14.27;;;2.20;;
35909;SDS011;22004;49.120;-0.200;2023-10-31T06:19:17;10.65;;;2.25;;
35909;SDS011;22004;49.120;-0.200;2023-10-31T06:21:42;9.98;;;2.33;;
35909;SDS011;22004;49.120;-0.200;2023-10-31T06:24:08;12.93;;;2.15;;
35909;SDS011;22004;49.120;-0.200;2023-10-31T06:26:33;8.38;;;1.90;;
35909;SDS011;22004;49.120;-0.200;2023-10-31T06:28:58;5.93;;;2.55;;
35909;SDS011;22004;49.120;-0.200;2023-10-31T06:31:24;4.28;;;1.83;;
35909;SDS011;22004;49.120;-0.200;2023-10-31T06:33:49;9.40;;;1.90;;
35909;SDS011;22004;49.120;-0.200;2023-10-31T06:36:14;6.40;;;1.83;;
35909;SDS011;22004;49.120;-0.200;2023-10-31T06:38:40;7.25;;;1.80;;
35909;SDS011;22004;49.120;-0.200;2023-10-31T06:41:05;7.75;;;2.30;;
35909;SDS011;22004;49.120;-0.200;2023-10-31T06:43:31;6.30;;;2.00;;
35909;SDS011;22004;49.120;-0.200;2023-10-31T06:45:56;7.53;;;1.75;;
35909;SDS011;22004;49.120;-0.200;2023-10-31T06:48:25;5.60;;;1.83;;
35909;SDS011;22004;49.120;-0.200;2023-10-31T06:50:50;10.15;;;1.98;;
35909;SDS011;22004;49.120;-0.200;2023-10-31T06:53:16;8.40;;;1.70;;
35909;SDS011;22004;49.120;-0.200;2023-10-31T06:55:41;8.85;;;1.70;;
35909;SDS011;22004;49.120;-0.200;2023-10-31T06:58:06;5.82;;;2.05;;
35909;SDS011;22004;49.120;-0.200;2023-10-31T07:00:31;6.53;;;1.80;;
35909;SDS011;22004;49.120;-0.200;2023-10-31T07:02:57;6.15;;;1.90;;
35909;SDS011;22004;49.120;-0.200;2023-10-31T07:05:23;4.60;;;1.90;;
35909;SDS011;22004;49.120;-0.200;2023-10-31T07:07:49;11.68;;;2.42;;
35909;SDS011;22004;49.120;-0.200;2023-10-31T07:10:15;9.52;;;2.22;;
35909;SDS011;22004;49.120;-0.200;2023-10-31T07:12:40;10.02;;;2.33;;
35909;SDS011;22004;49.120;-0.200;2023-10-31T07:15:06;10.45;;;2.05;;
35909;SDS011;22004;49.120;-0.200;2023-10-31T07:17:31;8.13;;;2.00;;
35909;SDS011;22004;49.120;-0.200;2023-10-31T07:19:57;7.25;;;1.67;;
35909;SDS011;22004;49.120;-0.200;2023-10-31T07:22:22;7.13;;;1.90;;
35909;SDS011;22004;49.120;-0.200;2023-10-31T07:24:49;3.55;;;1.67;;
35909;SDS011;22004;49.120;-0.200;2023-10-31T07:27:15;12.15;;;2.65;;
35909;SDS011;22004;49.120;-0.200;2023-10-31T07:29:41;7.47;;;2.38;;
35909;SDS011;22004;49.120;-0.200;2023-10-31T07:32:07;11.45;;;2.25;;
35909;SDS011;22004;49.120;-0.200;2023-10-31T07:34:35;12.60;;;2.03;;
35909;SDS011;22004;49.120;-0.200;2023-10-31T07:37:00;7.35;;;1.95;;
35909;SDS011;22004;49.120;-0.200;2023-10-31T07:39:26;11.95;;;1.90;;
35909;SDS011;22004;49.120;-0.200;2023-10-31T07:41:52;6.93;;;1.98;;
35909;SDS011;22004;49.120;-0.200;2023-10-31T07:44:17;7.82;;;2.05;;
35909;SDS011;22004;49.120;-0.200;2023-10-31T07:46:42;10.23;;;2.05;;
35909;SDS011;22004;49.120;-0.200;2023-10-31T07:49:08;14.50;;;2.13;;
35909;SDS011;22004;49.120;-0.200;2023-10-31T07:51:33;10.02;;;2.15;;
35909;SDS011;22004;49.120;-0.200;2023-10-31T07:53:58;10.90;;;2.20;;
35909;SDS011;22004;49.120;-0.200;2023-10-31T07:56:24;12.57;;;2.78;;
35909;SDS011;22004;49.120;-0.200;2023-10-31T07:58:50;10.05;;;2.03;;
35909;SDS011;22004;49.120;-0.200;2023-10-31T08:01:19;7.72;;;1.63;;
35909;SDS011;22004;49.120;-0.200;2023-10-31T08:03:47;8.93;;;2.20;;
35909;SDS011;22004;49.120;-0.200;2023-10-31T08:06:13;14.88;;;2.97;;
35909;SDS011;22004;49.120;-0.200;2023-10-31T08:08:39;13.48;;;2.50;;
35909;SDS011;22004;49.120;-0.200;2023-10-31T08:11:07;8.93;;;2.60;;
35909;SDS011;22004;49.120;-0.200;2023-10-31T08:13:32;8.30;;;1.92;;
35909;SDS011;22004;49.120;-0.200;2023-10-31T08:15:58;11.30;;;2.40;;
35909;SDS011;22004;49.120;-0.200;2023-10-31T08:18:23;10.93;;;2.10;;
35909;SDS011;22004;49.120;-0.200;2023-10-31T08:20:49;12.10;;;3.10;;
35909;SDS011;22004;49.120;-0.200;2023-10-31T08:23:16;10.73;;;1.90;;
35909;SDS011;22004;49.120;-0.200;2023-10-31T08:25:42;14.20;;;2.28;;
35909;SDS011;22004;49.120;-0.200;2023-10-31T08:28:07;10.02;;;2.28;;
35909;SDS011;22004;49.120;-0.200;2023-10-31T08:30:32;12.20;;;2.20;;
35909;SDS011;22004;49.120;-0.200;2023-10-31T08:32:58;6.57;;;2.03;;
35909;SDS011;22004;49.120;-0.200;2023-10-31T08:35:24;15.80;;;2.42;;
35909;SDS011;22004;49.120;-0.200;2023-10-31T08:37:49;15.00;;;2.42;;
35909;SDS011;22004;49.120;-0.200;2023-10-31T08:40:14;14.32;;;2.40;;
35909;SDS011;22004;49.120;-0.200;2023-10-31T08:42:40;18.20;;;2.47;;
35909;SDS011;22004;49.120;-0.200;2023-10-31T08:45:06;17.58;;;2.50;;
35909;SDS011;22004;49.120;-0.200;2023-10-31T08:47:32;13.93;;;2.25;;
35909;SDS011;22004;49.120;-0.200;2023-10-31T08:49:58;13.40;;;2.17;;
35909;SDS011;22004;49.120;-0.200;2023-10-31T08:52:23;20.55;;;2.55;;
35909;SDS011;22004;49.120;-0.200;2023-10-31T08:54:48;17.65;;;3.10;;
35909;SDS011;22004;49.120;-0.200;2023-10-31T08:57:14;11.80;;;2.38;;
35909;SDS011;22004;49.120;-0.200;2023-10-31T08:59:39;11.65;;;2.15;;
35909;SDS011;22004;49.120;-0.200;2023-10-31T09:02:05;24.10;;;3.00;;
35909;SDS011;22004;49.120;-0.200;2023-10-31T09:04:31;12.18;;;2.05;;
35909;SDS011;22004;49.120;-0.200;2023-10-31T09:06:56;11.57;;;2.38;;
35909;SDS011;22004;49.120;-0.200;2023-10-31T09:09:21;17.85;;;3.13;;
35909;SDS011;22004;49.120;-0.200;2023-10-31T09:11:47;13.38;;;2.15;;
35909;SDS011;22004;49.120;-0.200;2023-10-31T09:14:12;15.57;;;2.25;;
35909;SDS011;22004;49.120;-0.200;2023-10-31T09:16:37;12.38;;;2.60;;
35909;SDS011;22004;49.120;-0.200;2023-10-31T09:19:03;5.70;;;1.98;;
35909;SDS011;22004;49.120;-0.200;2023-10-31T09:21:28;24.23;;;3.95;;
35909;SDS011;22004;49.120;-0.200;2023-10-31T09:23:53;15.27;;;2.78;;
35909;SDS011;22004;49.120;-0.200;2023-10-31T09:26:19;13.32;;;2.53;;
35909;SDS011;22004;49.120;-0.200;2023-10-31T09:28:45;19.10;;;2.97;;
35909;SDS011;22004;49.120;-0.200;2023-10-31T09:31:16;8.43;;;1.85;;
35909;SDS011;22004;49.120;-0.200;2023-10-31T09:33:42;11.68;;;2.63;;
35909;SDS011;22004;49.120;-0.200;2023-10-31T09:36:08;21.65;;;3.03;;
35909;SDS011;22004;49.120;-0.200;2023-10-31T09:38:33;18.85;;;2.92;;
35909;SDS011;22004;49.120;-0.200;2023-10-31T09:40:59;10.35;;;2.30;;
35909;SDS011;22004;49.120;-0.200;2023-10-31T09:43:24;16.08;;;2.60;;
35909;SDS011;22004;49.120;-0.200;2023-10-31T09:45:49;10.20;;;2.30;;
35909;SDS011;22004;49.120;-0.200;2023-10-31T09:48:15;23.77;;;3.97;;
35909;SDS011;22004;49.120;-0.200;2023-10-31T09:50:41;24.98;;;3.72;;
35909;SDS011;22004;49.120;-0.200;2023-10-31T09:53:06;28.27;;;3.97;;
35909;SDS011;22004;49.120;-0.200;2023-10-31T09:55:33;20.08;;;2.75;;
35909;SDS011;22004;49.120;-0.200;2023-10-31T09:57:59;23.60;;;3.10;;
35909;SDS011;22004;49.120;-0.200;2023-10-31T10:00:24;22.67;;;3.33;;
35909;SDS011;22004;49.120;-0.200;2023-10-31T10:02:50;22.70;;;3.05;;
35909;SDS011;22004;49.120;-0.200;2023-10-31T10:05:16;30.60;;;3.40;;
35909;SDS011;22004;49.120;-0.200;2023-10-31T10:07:42;22.98;;;3.42;;
35909;SDS011;22004;49.120;-0.200;2023-10-31T10:10:12;10.85;;;2.30;;
35909;SDS011;22004;49.120;-0.200;2023-10-31T10:12:37;24.38;;;4.47;;
35909;SDS011;22004;49.120;-0.200;2023-10-31T10:15:06;20.30;;;2.88;;
35909;SDS011;22004;49.120;-0.200;2023-10-31T10:17:32;19.40;;;2.70;;
35909;SDS011;22004;49.120;-0.200;2023-10-31T10:20:10;18.35;;;2.95;;
35909;SDS011;22004;49.120;-0.200;2023-10-31T10:22:37;15.63;;;2.60;;
35909;SDS011;22004;49.120;-0.200;2023-10-31T10:25:07;15.07;;;2.47;;
35909;SDS011;22004;49.120;-0.200;2023-10-31T10:27:33;24.02;;;3.85;;
35909;SDS011;22004;49.120;-0.200;2023-10-31T10:29:58;14.15;;;2.78;;
35909;SDS011;22004;49.120;-0.200;2023-10-31T10:32:23;24.33;;;3.65;;
35909;SDS011;22004;49.120;-0.200;2023-10-31T10:34:49;24.08;;;4.07;;
35909;SDS011;22004;49.120;-0.200;2023-10-31T10:37:14;14.82;;;3.17;;
35909;SDS011;22004;49.120;-0.200;2023-10-31T10:39:43;22.58;;;3.20;;
35909;SDS011;22004;49.120;-0.200;2023-10-31T10:42:12;17.23;;;3.08;;
35909;SDS011;22004;49.120;-0.200;2023-10-31T10:44:43;19.15;;;2.60;;
35909;SDS011;22004;49.120;-0.200;2023-10-31T10:47:09;27.92;;;3.85;;
35909;SDS011;22004;49.120;-0.200;2023-10-31T10:49:37;15.38;;;2.65;;
35909;SDS011;22004;49.120;-0.200;2023-10-31T10:55:04;17.60;;;2.63;;
35909;SDS011;22004;49.120;-0.200;2023-10-31T10:57:37;19.92;;;2.90;;
35909;SDS011;22004;49.120;-0.200;2023-10-31T11:00:09;26.02;;;2.60;;
35909;SDS011;22004;49.120;-0.200;2023-10-31T11:02:38;17.15;;;2.95;;
35909;SDS011;22004;49.120;-0.200;2023-10-31T11:05:06;25.73;;;3.80;;
35909;SDS011;22004;49.120;-0.200;2023-10-31T11:07:32;22.58;;;3.10;;
35909;SDS011;22004;49.120;-0.200;2023-10-31T11:09:59;21.85;;;3.25;;
35909;SDS011;22004;49.120;-0.200;2023-10-31T11:12:29;20.23;;;2.58;;
35909;SDS011;22004;49.120;-0.200;2023-10-31T11:14:55;20.02;;;3.40;;
35909;SDS011;22004;49.120;-0.200;2023-10-31T11:17:27;22.02;;;3.63;;
35909;SDS011;22004;49.120;-0.200;2023-10-31T11:19:56;15.07;;;2.47;;
35909;SDS011;22004;49.120;-0.200;2023-10-31T11:22:22;20.60;;;3.67;;
35909;SDS011;22004;49.120;-0.200;2023-10-31T11:24:48;9.48;;;2.30;;
35909;SDS011;22004;49.120;-0.200;2023-10-31T11:27:14;19.52;;;2.95;;
35909;SDS011;22004;49.120;-0.200;2023-10-31T11:29:39;24.45;;;3.28;;
35909;SDS011;22004;49.120;-0.200;2023-10-31T11:32:14;27.13;;;3.58;;
35909;SDS011;22004;49.120;-0.200;2023-10-31T11:34:40;16.88;;;2.63;;
35909;SDS011;22004;49.120;-0.200;2023-10-31T11:37:40;15.00;;;2.80;;
35909;SDS011;22004;49.120;-0.200;2023-10-31T11:42:43;14.10;;;2.55;;
35909;SDS011;22004;49.120;-0.200;2023-10-31T11:45:11;18.45;;;4.10;;
35909;SDS011;22004;49.120;-0.200;2023-10-31T11:50:12;16.95;;;2.90;;
35909;SDS011;22004;49.120;-0.200;2023-10-31T11:52:38;11.65;;;2.25;;
35909;SDS011;22004;49.120;-0.200;2023-10-31T11:55:04;18.00;;;2.83;;
35909;SDS011;22004;49.120;-0.200;2023-10-31T11:57:33;18.35;;;2.95;;
35909;SDS011;22004;49.120;-0.200;2023-10-31T12:00:00;17.42;;;2.72;;
35909;SDS011;22004;49.120;-0.200;2023-10-31T12:02:25;18.08;;;2.40;;
35909;SDS011;22004;49.120;-0.200;2023-10-31T12:04:51;19.20;;;2.70;;
35909;SDS011;22004;49.120;-0.200;2023-10-31T12:07:18;22.92;;;2.65;;
35909;SDS011;22004;49.120;-0.200;2023-10-31T12:09:47;11.60;;;2.17;;
35909;SDS011;22004;49.120;-0.200;2023-10-31T12:12:13;14.63;;;2.28;;
35909;SDS011;22004;49.120;-0.200;2023-10-31T12:14:39;18.15;;;2.80;;
35909;SDS011;22004;49.120;-0.200;2023-10-31T12:17:04;19.70;;;2.83;;
35909;SDS011;22004;49.120;-0.200;2023-10-31T12:19:31;16.73;;;2.63;;
35909;SDS011;22004;49.120;-0.200;2023-10-31T12:21:57;17.20;;;3.00;;
35909;SDS011;22004;49.120;-0.200;2023-10-31T12:24:22;16.58;;;2.25;;
35909;SDS011;22004;49.120;-0.200;2023-10-31T12:26:48;15.00;;;2.20;;
35909;SDS011;22004;49.120;-0.200;2023-10-31T12:29:14;16.92;;;2.72;;
35909;SDS011;22004;49.120;-0.200;2023-10-31T12:31:43;20.73;;;3.45;;
35909;SDS011;22004;49.120;-0.200;2023-10-31T12:34:20;16.42;;;2.50;;
35909;SDS011;22004;49.120;-0.200;2023-10-31T12:36:47;11.05;;;2.38;;
35909;SDS011;22004;49.120;-0.200;2023-10-31T12:39:14;18.83;;;2.50;;
35909;SDS011;22004;49.120;-0.200;2023-10-31T12:41:42;18.58;;;2.70;;
35909;SDS011;22004;49.120;-0.200;2023-10-31T12:44:09;22.60;;;4.00;;
35909;SDS011;22004;49.120;-0.200;2023-10-31T12:46:37;16.88;;;3.05;;
35909;SDS011;22004;49.120;-0.200;2023-10-31T12:49:08;17.13;;;2.00;;
35909;SDS011;22004;49.120;-0.200;2023-10-31T12:51:36;26.45;;;3.05;;
35909;SDS011;22004;49.120;-0.200;2023-10-31T12:54:02;23.25;;;3.47;;
35909;SDS011;22004;49.120;-0.200;2023-10-31T12:56:41;21.80;;;2.40;;
35909;SDS011;22004;49.120;-0.200;2023-10-31T12:59:07;19.00;;;2.88;;
35909;SDS011;22004;49.120;-0.200;2023-10-31T13:01:34;17.58;;;2.45;;
35909;SDS011;22004;49.120;-0.200;2023-10-31T13:04:01;28.50;;;4.22;;
35909;SDS011;22004;49.120;-0.200;2023-10-31T13:06:27;15.75;;;2.67;;
35909;SDS011;22004;49.120;-0.200;2023-10-31T13:08:54;15.25;;;2.42;;
35909;SDS011;22004;49.120;-0.200;2023-10-31T13:11:21;12.48;;;2.95;;
35909;SDS011;22004;49.120;-0.200;2023-10-31T13:13:53;8.10;;;2.10;;
35909;SDS011;22004;49.120;-0.200;2023-10-31T13:16:19;17.00;;;2.17;;
35909;SDS011;22004;49.120;-0.200;2023-10-31T13:18:44;15.45;;;2.13;;
35909;SDS011;22004;49.120;-0.200;2023-10-31T13:21:10;16.00;;;2.50;;
35909;SDS011;22004;49.120;-0.200;2023-10-31T13:23:36;13.80;;;2.55;;
35909;SDS011;22004;49.120;-0.200;2023-10-31T13:26:03;10.73;;;2.00;;
35909;SDS011;22004;49.120;-0.200;2023-10-31T13:28:28;19.98;;;3.47;;
35909;SDS011;22004;49.120;-0.200;2023-10-31T13:30:55;19.77;;;3.00;;
35909;SDS011;22004;49.120;-0.200;2023-10-31T13:33:21;21.05;;;2.78;;
35909;SDS011;22004;49.120;-0.200;2023-10-31T13:35:46;12.25;;;2.13;;
35909;SDS011;22004;49.120;-0.200;2023-10-31T13:38:11;10.32;;;2.25;;
35909;SDS011;22004;49.120;-0.200;2023-10-31T13:40:37;22.60;;;2.40;;
35909;SDS011;22004;49.120;-0.200;2023-10-31T13:43:02;12.82;;;2.78;;
35909;SDS011;22004;49.120;-0.200;2023-10-31T13:45:29;13.50;;;2.58;;
35909;SDS011;22004;49.120;-0.200;2023-10-31T13:47:55;15.75;;;2.55;;
35909;SDS011;22004;49.120;-0.200;2023-10-31T13:50:20;11.60;;;2.38;;
35909;SDS011;22004;49.120;-0.200;2023-10-31T13:52:45;16.35;;;2.83;;
35909;SDS011;22004;49.120;-0.200;2023-10-31T13:55:11;14.65;;;2.65;;
35909;SDS011;22004;49.120;-0.200;2023-10-31T13:57:36;15.95;;;2.65;;
35909;SDS011;22004;49.120;-0.200;2023-10-31T14:00:02;16.35;;;2.33;;
35909;SDS011;22004;49.120;-0.200;2023-10-31T14:02:28;10.60;;;2.00;;
35909;SDS011;22004;49.120;-0.200;2023-10-31T14:04:53;17.42;;;2.20;;
35909;SDS011;22004;49.120;-0.200;2023-10-31T14:07:22;12.05;;;2.17;;
35909;SDS011;22004;49.120;-0.200;2023-10-31T14:09:48;15.43;;;2.20;;
35909;SDS011;22004;49.120;-0.200;2023-10-31T14:12:13;10.80;;;2.13;;
35909;SDS011;22004;49.120;-0.200;2023-10-31T14:14:39;14.85;;;2.42;;
35909;SDS011;22004;49.120;-0.200;2023-10-31T14:17:04;12.48;;;2.63;;
35909;SDS011;22004;49.120;-0.200;2023-10-31T14:19:30;17.05;;;2.67;;
35909;SDS011;22004;49.120;-0.200;2023-10-31T14:21:55;22.42;;;3.85;;
35909;SDS011;22004;49.120;-0.200;2023-10-31T14:24:21;9.77;;;1.85;;
35909;SDS011;22004;49.120;-0.200;2023-10-31T14:26:47;12.40;;;2.55;;